createdAt,value
2018-07-17T00:05:28.185Z,1008.4
2018-07-17T00:15:42.208Z,1008.3
2018-07-17T00:26:28.055Z,1008.3
2018-07-17T00:37:13.592Z,1008.3
2018-07-17T00:47:27.006Z,1008.3
2018-07-17T00:57:41.212Z,1008.3
2018-07-17T01:07:55.409Z,1008.3
2018-07-17T01:18:09.849Z,1008.2
2018-07-17T01:28:23.945Z,1008.1
2018-07-17T01:38:38.250Z,1008.1
2018-07-17T01:48:52.741Z,1008.1
2018-07-17T01:59:06.663Z,1008.1
2018-07-17T02:09:20.980Z,1008.0
2018-07-17T02:19:36.312Z,1008.1
2018-07-17T02:29:50.144Z,1007.9
2018-07-17T02:40:01.858Z,1007.9
2018-07-17T02:50:15.808Z,1008.0
2018-07-17T03:00:31.290Z,1008.0
2018-07-17T03:10:46.228Z,1007.9
2018-07-17T03:21:00.464Z,1008.0
2018-07-17T03:31:14.668Z,1007.9
2018-07-17T03:41:29.244Z,1008.0
2018-07-17T03:51:43.044Z,1008.0
2018-07-17T04:01:57.340Z,1008.1
2018-07-17T04:12:11.900Z,1008.0
2018-07-17T04:22:57.397Z,1008.1
2018-07-17T04:33:11.781Z,1008.0
2018-07-17T04:43:26.063Z,1008.2
2018-07-17T04:54:11.719Z,1008.1
2018-07-17T05:04:57.221Z,1008.3
2018-07-17T05:15:43.066Z,1008.3
2018-07-17T05:25:55.078Z,1008.3
2018-07-17T05:36:08.708Z,1008.6
2018-07-17T05:46:23.084Z,1008.6
2018-07-17T05:56:35.253Z,1008.6
2018-07-17T06:06:50.096Z,1008.6
2018-07-17T06:17:35.943Z,1008.7
2018-07-17T06:28:22.225Z,1008.6
2018-07-17T06:38:36.064Z,1008.6
2018-07-17T06:48:50.176Z,1008.7
2018-07-17T06:59:05.524Z,1008.7
2018-07-17T07:09:19.614Z,1008.8
2018-07-17T07:19:34.001Z,1008.8
2018-07-17T07:29:48.049Z,1008.7
2018-07-17T07:39:59.165Z,1008.8
2018-07-17T07:50:13.511Z,1009.0
2018-07-17T08:00:27.595Z,1008.8
2018-07-17T08:10:42.068Z,1008.9
2018-07-17T08:21:27.908Z,1008.8
2018-07-17T08:32:13.388Z,1008.9
2018-07-17T08:42:26.845Z,1009.3
2018-07-17T08:52:41.179Z,1009.1
2018-07-17T09:02:55.464Z,1009.2
2018-07-17T09:13:11.512Z,1008.8
2018-07-17T09:23:57.050Z,1009.3
2018-07-17T09:34:10.929Z,1008.9
2018-07-17T09:44:24.962Z,1008.8
2018-07-17T09:54:36.895Z,1009.0
2018-07-17T10:04:51.724Z,1009.3
2018-07-17T10:25:58.688Z,1009.1
2018-07-17T10:36:14.179Z,1009.1
2018-07-17T10:46:38.191Z,1008.9
2018-07-17T10:56:53.137Z,1008.9
2018-07-17T11:07:45.543Z,1008.8
2018-07-17T11:18:01.305Z,1008.8
2018-07-17T11:39:02.719Z,1008.5
2018-07-17T11:49:16.945Z,1008.9
2018-07-17T11:59:31.184Z,1008.9
2018-07-17T12:09:43.056Z,1008.8
2018-07-17T12:19:54.937Z,1008.7
2018-07-17T12:30:06.116Z,1008.8
2018-07-17T12:40:55.120Z,1008.8
2018-07-17T12:51:09.361Z,1008.9
2018-07-17T13:01:21.984Z,1009.0
2018-07-17T13:11:35.432Z,1009.0
2018-07-17T13:22:23.304Z,1009.0
2018-07-17T13:33:08.443Z,1008.9
2018-07-17T13:43:54.236Z,1008.4
2018-07-17T13:54:39.797Z,1008.7
2018-07-17T14:04:51.168Z,1008.5
2018-07-17T14:15:05.543Z,1008.4
2018-07-17T14:25:19.928Z,1008.4
2018-07-17T14:35:33.623Z,1008.3
2018-07-17T14:45:48.057Z,1008.3
2018-07-17T14:56:02.160Z,1008.3
2018-07-17T15:06:16.521Z,1008.3
2018-07-17T15:17:02.833Z,1008.4
2018-07-17T15:27:23.900Z,1008.3
2018-07-17T15:38:08.917Z,1008.5
2018-07-17T15:48:54.595Z,1008.5
2018-07-17T15:59:39.402Z,1008.5
2018-07-17T16:10:39.000Z,1008.7
2018-07-17T16:20:52.716Z,1008.8
2018-07-17T16:31:13.084Z,1008.7
2018-07-17T16:41:27.503Z,1008.7
2018-07-17T16:52:01.564Z,1008.7
2018-07-17T17:02:15.981Z,1008.7
2018-07-17T17:12:29.850Z,1008.7
2018-07-17T17:23:15.965Z,1008.8
2018-07-17T17:33:28.489Z,1009.0
2018-07-17T17:43:43.075Z,1009.2
2018-07-17T17:53:57.617Z,1009.4
2018-07-17T18:04:11.990Z,1009.6
2018-07-17T18:14:25.770Z,1009.8
2018-07-17T18:24:45.009Z,1010.0
2018-07-17T18:45:16.384Z,1010.3
2018-07-17T18:55:30.869Z,1010.4
2018-07-17T19:05:44.962Z,1010.6
2018-07-17T19:16:42.008Z,1010.8
2018-07-17T19:28:33.668Z,1011.0
2018-07-17T19:39:52.073Z,1011.2
2018-07-17T19:51:37.143Z,1011.5
2018-07-17T20:03:14.925Z,1011.4
2018-07-17T20:15:37.582Z,1011.7
2018-07-17T20:26:44.180Z,1011.7
2018-07-17T20:38:52.227Z,1011.8
2018-07-17T20:50:32.791Z,1012.0
2018-07-17T21:00:49.128Z,1012.0
2018-07-17T21:11:44.110Z,1012.1
2018-07-17T21:21:58.482Z,1012.3
2018-07-17T21:32:12.609Z,1012.3
2018-07-17T21:42:31.816Z,1012.4
2018-07-17T21:52:46.257Z,1012.6
2018-07-17T22:03:00.577Z,1012.6
2018-07-17T22:13:17.744Z,1012.6
2018-07-17T22:24:03.274Z,1012.6
2018-07-17T22:34:54.029Z,1012.7
2018-07-17T22:45:08.541Z,1012.6
2018-07-17T22:55:22.957Z,1012.7
2018-07-17T23:05:37.122Z,1012.8
2018-07-17T23:16:27.210Z,1012.9
2018-07-17T23:27:14.753Z,1012.8
2018-07-17T23:38:00.191Z,1012.9
2018-07-17T23:48:14.343Z,1012.8
2018-07-17T23:58:42.523Z,1012.8
